Time;durP1;ratioP1;P1;durP2;ratioP2;P2;SDS_P1;SDS_P2;PMS_P1;PMS_P2;Temp;Humidity;BMP_temperature;BMP_pressure;BME280_temperature;BME280_humidity;BME280_pressure;Samples;Min_cycle;Max_cycle;Signal;HPM_P1;HPM_P2
2020/12/05 00:02:15;;;;;;;10.63;6.78;;;;;;;22.23;37.68;94793.41;5064734;28;20048;-78
2020/12/05 00:04:41;;;;;;;8.90;6.50;;;;;;;22.12;37.72;94804.34;5097163;28;20036;-78
2020/12/05 00:07:07;;;;;;;7.65;5.75;;;;;;;22.11;37.79;94808.28;5065930;28;20563;-78
2020/12/05 00:09:32;;;;;;;10.55;6.82;;;;;;;22.12;37.60;94803.56;5074857;28;20039;-78
2020/12/05 00:12:01;;;;;;;8.82;6.07;;;;;;;22.12;37.54;94804.34;5081337;28;20036;-77
2020/12/05 00:14:26;;;;;;;9.88;7.05;;;;;;;21.99;37.73;94793.28;5086760;28;20012;-78
2020/12/05 00:16:52;;;;;;;10.02;6.75;;;;;;;22.00;37.71;94792.06;5083438;28;20051;-77
2020/12/05 00:19:19;;;;;;;10.57;6.90;;;;;;;22.01;37.69;94804.41;5063946;28;20028;-79
2020/12/05 00:21:44;;;;;;;9.85;6.72;;;;;;;21.94;37.75;94815.84;5081780;28;20028;-78
2020/12/05 00:24:09;;;;;;;8.98;6.25;;;;;;;22.00;37.76;94818.50;5064539;28;20069;-78
2020/12/05 00:26:35;;;;;;;11.07;6.32;;;;;;;21.94;37.80;94815.84;5064337;28;20024;-78
2020/12/05 00:29:00;;;;;;;10.63;7.43;;;;;;;22.00;37.73;94819.25;5081263;28;20024;-78
2020/12/05 00:31:26;;;;;;;10.00;7.15;;;;;;;21.82;38.13;94804.78;5064687;28;20455;-78
2020/12/05 00:33:51;;;;;;;9.70;6.10;;;;;;;21.94;37.97;94821.25;5065147;28;20483;-79
2020/12/05 00:36:17;;;;;;;11.23;6.70;;;;;;;21.84;38.12;94810.44;5068128;28;20032;-78
2020/12/05 00:38:43;;;;;;;10.00;6.60;;;;;;;21.81;38.13;94814.16;5065523;28;20034;-78
2020/12/05 00:41:09;;;;;;;9.68;7.00;;;;;;;21.89;38.07;94823.28;5064234;28;20409;-78
2020/12/05 00:43:35;;;;;;;9.90;6.65;;;;;;;21.81;38.03;94811.44;5070930;28;20024;-78
2020/12/05 00:46:04;;;;;;;11.07;6.63;;;;;;;21.82;38.04;94823.81;5064547;28;20807;-78
2020/12/05 00:48:29;;;;;;;10.15;6.47;;;;;;;21.78;38.06;94826.81;5081222;28;20532;-78
2020/12/05 00:50:55;;;;;;;9.50;6.60;;;;;;;21.71;38.04;94823.88;5051613;28;20127;-78
2020/12/05 00:53:20;;;;;;;9.48;6.20;;;;;;;21.78;38.16;94845.06;5081050;28;20039;-78
2020/12/05 00:55:46;;;;;;;9.68;6.60;;;;;;;21.83;38.21;94838.88;5079837;28;20028;-78
2020/12/05 00:58:12;;;;;;;10.27;6.80;;;;;;;21.77;38.08;94838.19;5064403;28;20024;-78
2020/12/05 01:00:38;;;;;;;9.52;6.63;;;;;;;21.77;37.99;94841.63;5082660;28;20032;-78
2020/12/05 01:03:03;;;;;;;9.52;6.15;;;;;;;21.66;38.14;94827.38;5064876;28;20032;-78
2020/12/05 01:05:29;;;;;;;9.80;6.80;;;;;;;21.69;38.26;94843.41;5066664;28;20020;-78
2020/12/05 01:07:55;;;;;;;9.68;6.47;;;;;;;21.71;37.81;94838.19;5064148;28;20036;-78
2020/12/05 01:10:20;;;;;;;9.30;6.40;;;;;;;21.67;38.30;94834.25;5082360;28;20032;-78
2020/12/05 01:12:45;;;;;;;10.70;6.80;;;;;;;21.63;38.26;94829.09;5062915;28;20028;-78
2020/12/05 01:15:11;;;;;;;9.65;6.55;;;;;;;21.73;38.02;94837.69;5063968;28;20016;-78
2020/12/05 01:17:36;;;;;;;9.93;6.47;;;;;;;21.62;38.10;94832.31;5081743;28;20414;-78
2020/12/05 01:20:05;;;;;;;10.95;7.07;;;;;;;21.65;38.16;94839.47;5080937;28;20485;-78
2020/12/05 01:22:31;;;;;;;9.55;6.18;;;;;;;21.66;38.32;94838.25;5063347;28;20031;-78
2020/12/05 01:24:56;;;;;;;9.90;6.40;;;;;;;21.67;38.35;94839.69;5064447;28;20028;-78
2020/12/05 01:27:22;;;;;;;8.93;6.53;;;;;;;21.63;38.33;94833.81;5069063;28;20035;-79
2020/12/05 01:29:47;;;;;;;10.82;7.05;;;;;;;21.60;38.25;94834.81;5054485;28;20027;-78
2020/12/05 01:32:13;;;;;;;9.40;6.10;;;;;;;21.55;38.64;94828.16;5085933;28;20021;-78
2020/12/05 01:34:38;;;;;;;9.45;6.55;;;;;;;21.57;38.34;94830.38;5068849;28;20012;-76
2020/12/05 01:37:03;;;;;;;10.50;6.80;;;;;;;21.56;38.20;94828.91;5067227;28;20501;-77
2020/12/05 01:39:29;;;;;;;11.82;6.72;;;;;;;21.50;38.47;94830.91;5084047;28;20016;-77
2020/12/05 01:41:54;;;;;;;8.52;6.07;;;;;;;21.59;38.33;94833.31;5084162;28;20020;-77
2020/12/05 01:44:20;;;;;;;9.00;6.13;;;;;;;21.56;38.76;94837.03;5086013;28;20032;-76
2020/12/05 01:46:47;;;;;;;9.82;6.43;;;;;;;21.49;38.35;94840.28;5067566;28;20070;-78
2020/12/05 01:49:15;;;;;;;9.82;6.45;;;;;;;21.52;38.48;94845.47;5066542;28;20028;-78
2020/12/05 01:51:40;;;;;;;8.80;6.13;;;;;;;21.52;38.24;94845.47;5067480;28;20085;-78
2020/12/05 01:54:07;;;;;;;9.13;5.85;;;;;;;21.39;38.49;94828.22;5082418;28;20012;-77
2020/12/05 01:56:32;;;;;;;8.50;5.85;;;;;;;21.53;38.29;94846.94;5069850;28;20024;-79
2020/12/05 01:58:58;;;;;;;9.35;6.30;;;;;;;21.50;38.30;94836.34;5084188;28;20535;-78
2020/12/05 02:01:25;;;;;;;9.75;6.40;;;;;;;21.48;38.33;94838.81;5085675;28;21522;-78
2020/12/05 02:04:03;;;;;;;8.95;6.68;;;;;;;21.42;38.37;94829.94;5066219;28;20036;-78
2020/12/05 02:06:52;;;;;;;10.65;6.72;;;;;;;21.49;38.53;94829.41;5050720;28;20028;-78
2020/12/05 02:09:19;;;;;;;9.75;6.32;;;;;;;21.48;38.33;94828.69;5066028;28;20032;-78
2020/12/05 02:12:00;;;;;;;8.85;6.10;;;;;;;21.41;38.49;94833.88;5066723;28;20114;-78
2020/12/05 02:14:26;;;;;;;9.13;6.18;;;;;;;21.46;38.25;94824.97;5057073;28;20039;-78
2020/12/05 02:16:51;;;;;;;8.57;5.72;;;;;;;21.44;38.31;94827.44;5067469;28;20410;-78
2020/12/05 02:19:17;;;;;;;8.98;6.30;;;;;;;21.42;38.61;94819.06;5083804;28;20144;-78
2020/12/05 02:21:43;;;;;;;8.85;6.00;;;;;;;21.46;38.43;94824.97;5067157;28;20500;-78
2020/12/05 02:24:09;;;;;;;10.20;6.60;;;;;;;21.35;38.51;94825.00;5083303;28;20555;-78
2020/12/05 02:26:34;;;;;;;10.40;6.53;;;;;;;21.42;38.52;94829.94;5083624;28;20109;-78
2020/12/05 02:28:59;;;;;;;10.98;6.38;;;;;;;21.31;38.45;94819.09;5050106;28;20028;-78
2020/12/05 02:31:25;;;;;;;9.15;6.22;;;;;;;21.39;38.36;94825.50;5065962;28;20413;-78
2020/12/05 02:33:51;;;;;;;10.38;6.68;;;;;;;21.39;38.49;94820.06;5067526;28;20482;-78
2020/12/05 02:36:16;;;;;;;9.65;6.43;;;;;;;21.34;38.65;94828.22;5085886;28;20020;-78
2020/12/05 02:39:00;;;;;;;9.13;5.78;;;;;;;21.29;38.72;94821.56;5066504;28;20533;-78
2020/12/05 02:41:25;;;;;;;8.50;5.97;;;;;;;21.32;38.61;94826.00;5058979;28;20032;-76
2020/12/05 02:43:51;;;;;;;9.73;6.28;;;;;;;21.29;38.83;94832.44;5065824;28;20028;-77
2020/12/05 02:46:22;;;;;;;9.18;6.20;;;;;;;21.31;38.49;94824.53;5087164;28;20116;-76
2020/12/05 02:48:49;;;;;;;8.40;5.70;;;;;;;21.32;38.41;94819.84;5097201;28;20020;-77
2020/12/05 02:51:17;;;;;;;9.07;6.25;;;;;;;21.33;38.48;94830.22;5081344;28;20028;-77
2020/12/05 02:53:43;;;;;;;9.77;6.53;;;;;;;21.32;38.41;94831.44;5085412;28;20028;-76
2020/12/05 02:56:13;;;;;;;9.70;6.35;;;;;;;21.24;38.71;94822.34;5085653;28;20481;-78
2020/12/05 02:58:40;;;;;;;9.20;6.35;;;;;;;21.32;38.51;94831.44;5073297;28;20204;-78
2020/12/05 03:01:05;;;;;;;9.07;5.93;;;;;;;21.29;38.37;94832.44;5082739;28;20062;-77
2020/12/05 03:03:34;;;;;;;8.70;5.60;;;;;;;21.34;38.58;94831.66;5065762;28;20036;-77
2020/12/05 03:06:01;;;;;;;9.07;6.20;;;;;;;21.34;38.54;94831.66;5084904;28;20031;-76
2020/12/05 03:08:27;;;;;;;9.15;5.93;;;;;;;21.27;38.66;94824.06;5065636;28;20079;-79
2020/12/05 03:10:53;;;;;;;9.07;6.50;;;;;;;21.19;38.70;94823.09;5082744;28;20116;-77
2020/12/05 03:13:18;;;;;;;8.93;5.90;;;;;;;;;;5052391;28;20027;-79
2020/12/05 03:15:50;;;;;;;9.57;6.05;;;;;;;21.24;38.71;94830.50;5084237;28;20101;-78
2020/12/05 03:18:26;;;;;;;8.60;5.97;;;;;;;21.25;38.53;94831.22;5064082;28;20055;-78
2020/12/05 03:20:54;;;;;;;8.02;6.03;;;;;;;21.23;38.57;94828.28;5081809;28;20040;-77
2020/12/05 03:23:25;;;;;;;8.88;6.18;;;;;;;21.19;38.51;94828.50;5046500;28;20056;-78
2020/12/05 03:25:56;;;;;;;8.98;5.70;;;;;;;21.18;38.63;94827.06;5064543;28;20530;-77
2020/12/05 03:28:24;;;;;;;9.48;5.93;;;;;;;21.19;38.67;94833.94;5082074;28;20677;-78
2020/12/05 03:30:55;;;;;;;8.73;5.68;;;;;;;21.17;38.44;94836.44;5083824;28;20074;-78
2020/12/05 03:33:22;;;;;;;8.60;5.93;;;;;;;21.17;38.52;94847.28;5066345;28;20041;-78
2020/12/05 03:35:49;;;;;;;7.90;5.82;;;;;;;21.17;38.99;94841.13;5083329;28;20705;-78
2020/12/05 03:38:19;;;;;;;7.93;5.72;;;;;;;21.15;38.71;94844.34;5063925;28;20024;-78
2020/12/05 03:40:46;;;;;;;8.43;5.90;;;;;;;21.05;38.58;94840.41;5078587;28;20039;-78
2020/12/05 08:28:22;;;;;;;5.73;3.77;;;;;;;24.96;34.08;94977.09;5103825;23;817377;-83
2020/12/05 08:30:48;;;;;;;6.68;3.95;;;;;;;25.12;34.26;95006.16;4966247;28;20273;-82
2020/12/05 08:33:14;;;;;;;6.25;3.50;;;;;;;25.10;34.49;95005.94;4979914;28;20026;-83
2020/12/05 08:35:39;;;;;;;7.32;4.50;;;;;;;25.16;34.25;95023.00;4980241;28;20026;-83
2020/12/05 08:38:05;;;;;;;6.30;3.92;;;;;;;25.19;34.28;95016.50;4979282;28;20038;-81
2020/12/05 08:40:31;;;;;;;7.30;3.60;;;;;;;25.13;33.98;95015.84;4997939;28;20462;-83
2020/12/05 08:42:57;;;;;;;7.38;3.30;;;;;;;25.20;34.18;95023.44;4980899;28;20046;-86
2020/12/05 08:45:22;;;;;;;7.55;3.80;;;;;;;25.24;34.00;95023.84;4976994;28;20108;-83
2020/12/05 08:47:49;;;;;;;5.88;3.80;;;;;;;25.23;34.08;95022.41;4992888;28;20101;-81
2020/12/05 08:50:35;;;;;;;5.90;3.70;;;;;;;25.20;34.31;95007.03;4958899;28;20033;-81
2020/12/05 08:53:01;;;;;;;7.60;3.92;;;;;;;25.27;33.89;95022.81;4977038;28;20488;-81
2020/12/05 08:55:27;;;;;;;6.38;4.05;;;;;;;25.23;33.94;95014.19;4991230;28;20045;-81
2020/12/05 08:58:00;;;;;;;5.70;3.72;;;;;;;25.18;33.76;94998.59;4980625;28;20173;-85
2020/12/05 09:00:26;;;;;;;4.53;3.20;;;;;;;25.27;34.05;95022.81;4977836;28;20026;-86
2020/12/05 09:02:52;;;;;;;4.65;3.70;;;;;;;25.30;33.96;95027.25;4993104;28;20104;-81
2020/12/05 09:05:17;;;;;;;6.25;4.70;;;;;;;25.31;33.93;95022.53;4974525;28;20372;-81
2020/12/05 09:07:55;;;;;;;5.63;3.40;;;;;;;25.33;33.83;95031.66;4958843;28;20035;-80
2020/12/05 09:10:25;;;;;;;7.55;3.88;;;;;;;25.13;33.71;95012.38;4960978;28;20030;-82
2020/12/05 09:12:50;;;;;;;5.03;3.75;;;;;;;25.32;34.17;95030.22;4972444;28;20066;-81
2020/12/05 09:15:17;;;;;;;6.55;3.67;;;;;;;25.31;34.02;95023.25;4977167;28;20023;-85
2020/12/05 09:17:42;;;;;;;5.20;3.53;;;;;;;25.34;33.43;95016.75;4973745;28;20041;-84
2020/12/05 09:20:19;;;;;;;5.35;3.40;;;;;;;25.38;33.74;95022.63;4950842;28;20431;-85
2020/12/05 09:22:46;;;;;;;4.35;3.15;;;;;;;25.42;33.82;95028.53;4966089;28;20041;-86
2020/12/05 09:25:11;;;;;;;5.20;3.60;;;;;;;25.34;33.57;95016.75;4962862;28;20034;-83
2020/12/05 09:27:41;;;;;;;6.63;3.72;;;;;;;25.38;33.85;95022.63;4978737;28;20045;-84
2020/12/05 09:30:12;;;;;;;5.80;3.60;;;;;;;25.36;33.55;95011.47;4995091;28;20034;-83
2020/12/05 09:32:42;;;;;;;5.00;3.53;;;;;;;25.42;34.02;95018.31;4968656;28;20459;-82
2020/12/05 09:35:07;;;;;;;5.55;3.92;;;;;;;25.42;33.95;95028.53;4982172;28;20041;-84
2020/12/05 09:37:33;;;;;;;5.07;3.67;;;;;;;25.33;33.61;95001.59;4968345;28;20427;-83
2020/12/05 09:39:58;;;;;;;5.50;3.55;;;;;;;25.53;34.28;95025.59;4964311;28;20037;-82
2020/12/05 09:42:24;;;;;;;4.93;3.67;;;;;;;25.40;34.12;95014.66;4979517;28;20035;-83
2020/12/05 09:44:50;;;;;;;4.95;3.75;;;;;;;25.49;34.04;95027.94;4980273;28;20023;-83
2020/12/05 09:47:15;;;;;;;5.68;3.67;;;;;;;25.55;33.83;95029.31;4967179;28;20038;-84
2020/12/05 09:49:41;;;;;;;6.28;3.92;;;;;;;25.57;34.09;95034.25;4981377;28;20828;-83
2020/12/05 09:52:07;;;;;;;5.22;3.75;;;;;;;25.52;34.15;95015.94;4949207;28;20483;-82
2020/12/05 09:54:36;;;;;;;4.75;3.42;;;;;;;25.46;34.17;95007.09;4963598;28;20014;-82
2020/12/05 09:57:04;;;;;;;4.60;3.63;;;;;;;25.60;34.08;95005.84;4968538;28;20038;-82
2020/12/05 09:59:30;;;;;;;5.70;3.55;;;;;;;25.57;34.20;95012.38;4964986;28;20034;-82
2020/12/05 10:01:55;;;;;;;5.55;3.65;;;;;;;25.53;33.96;95006.47;4964595;28;20057;-80
2020/12/05 10:04:21;;;;;;;6.10;3.55;;;;;;;25.66;33.90;95014.72;4941432;28;20105;-81
2020/12/05 10:06:47;;;;;;;5.35;3.42;;;;;;;25.72;33.80;95018.09;4947904;28;20085;-85
2020/12/05 10:09:12;;;;;;;5.05;3.50;;;;;;;25.69;33.87;95022.63;4943868;28;20027;-86
2020/12/05 10:11:38;;;;;;;5.47;3.72;;;;;;;25.71;33.73;95011.16;4964656;28;20074;-87
2020/12/05 10:14:04;;;;;;;4.88;3.60;;;;;;;25.70;33.62;95004.94;4949090;28;20484;-85
2020/12/05 10:16:31;;;;;;;5.22;4.00;;;;;;;25.76;33.77;95019.28;4918634;28;20118;-85
2020/12/05 10:18:57;;;;;;;4.63;3.45;;;;;;;25.67;33.24;94988.84;4930259;28;20439;-87
2020/12/05 10:21:22;;;;;;;5.90;3.63;;;;;;;25.79;33.65;94995.59;4962994;28;20042;-83
2020/12/05 10:23:48;;;;;;;4.97;3.30;;;;;;;25.70;33.90;94998.75;4928168;28;20393;-88
2020/12/05 10:26:13;;;;;;;6.20;4.07;;;;;;;25.55;33.90;94971.88;4934605;28;20113;-85
2020/12/05 10:28:39;;;;;;;8.32;3.97;;;;;;;25.71;33.89;95013.88;4935157;28;20043;-86
2020/12/05 10:31:04;;;;;;;5.05;3.67;;;;;;;25.65;33.99;94996.84;4956801;28;20028;-89
2020/12/05 10:33:30;;;;;;;7.43;3.67;;;;;;;25.71;33.88;94995.50;4938853;28;20032;-79
2020/12/05 10:35:55;;;;;;;5.07;3.63;;;;;;;25.61;33.71;94980.72;4957987;28;20035;-84
2020/12/05 10:38:21;;;;;;;4.75;3.50;;;;;;;25.65;33.98;94985.91;4928329;28;20078;-80
2020/12/05 10:43:27;;;;;;;4.88;3.53;;;;;;;25.60;33.78;94983.97;4940095;28;20477;-77
2020/12/05 10:45:52;;;;;;;5.45;3.72;;;;;;;25.60;33.83;94983.97;4911663;28;20035;-77
2020/12/05 10:48:17;;;;;;;5.18;3.80;;;;;;;25.61;34.25;94994.38;4940351;28;20090;-77
2020/12/05 10:50:45;;;;;;;7.22;3.53;;;;;;;25.61;34.18;94980.00;4942823;28;20523;-77
2020/12/05 10:53:11;;;;;;;6.32;3.92;;;;;;;25.57;34.00;94995.97;4943331;28;20038;-77
2020/12/05 10:55:44;;;;;;;5.10;3.50;;;;;;;25.58;34.12;94997.44;4944908;28;20086;-77
2020/12/05 10:58:11;;;;;;;5.85;3.42;;;;;;;25.53;34.44;94990.06;4943809;28;20074;-76
2020/12/05 11:00:37;;;;;;;4.57;3.35;;;;;;;25.57;34.29;94996.69;4944527;28;20055;-77
2020/12/05 11:03:03;;;;;;;5.30;3.42;;;;;;;25.59;34.17;94998.91;4945784;28;20119;-77
2020/12/05 11:05:30;;;;;;;4.97;3.72;;;;;;;25.56;34.36;94992.50;4958157;28;20048;-77
2020/12/05 11:07:59;;;;;;;5.78;3.88;;;;;;;25.59;34.18;94987.97;4960166;28;20035;-77
2020/12/05 11:10:27;;;;;;;5.22;3.60;;;;;;;25.43;34.50;94980.81;4944002;28;20622;-77
2020/12/05 11:12:54;;;;;;;5.65;3.42;;;;;;;25.55;34.36;94982.09;4942935;28;20553;-78
2020/12/05 11:15:30;;;;;;;5.72;3.50;;;;;;;25.56;34.35;94983.53;5322901;23;20136;-77
2020/12/05 11:17:55;;;;;;;6.78;3.70;;;;;;;25.63;34.12;94988.41;4964374;28;20679;-83
2020/12/05 11:20:22;;;;;;;5.38;3.75;;;;;;;25.53;34.77;94977.13;4960741;28;20034;-78
2020/12/05 11:23:07;;;;;;;6.05;3.80;;;;;;;25.58;34.06;94986.50;4974402;28;20411;-79
2020/12/05 11:25:33;;;;;;;5.45;3.42;;;;;;;25.60;34.05;94978.50;4869498;29;20044;-78
2020/12/05 11:27:58;;;;;;;6.28;4.28;;;;;;;25.45;34.46;94972.81;4890416;29;20130;-81
2020/12/05 11:30:24;;;;;;;5.53;3.60;;;;;;;25.59;34.35;94960.63;4882495;29;20184;-81
2020/12/05 11:32:50;;;;;;;5.82;4.28;;;;;;;25.67;34.27;94972.44;4866412;29;20506;-81
2020/12/05 11:35:16;;;;;;;6.80;4.03;;;;;;;25.63;34.31;94966.50;4822801;29;20081;-82
2020/12/05 11:37:41;;;;;;;6.40;4.00;;;;;;;25.58;34.12;94970.09;4868357;29;20053;-82
2020/12/05 11:40:06;;;;;;;5.75;4.10;;;;;;;25.62;34.15;94962.31;4872142;29;20037;-80
2020/12/05 11:42:32;;;;;;;6.90;4.15;;;;;;;25.64;34.17;94968.00;4897916;29;20033;-79
2020/12/05 11:45:01;;;;;;;6.93;4.68;;;;;;;25.54;34.13;94945.06;4894008;29;20138;-80
2020/12/05 11:47:27;;;;;;;6.07;4.15;;;;;;;25.48;34.38;94944.41;4893577;29;20036;-80
2020/12/05 11:50:17;;;;;;;6.03;4.20;;;;;;;25.58;34.48;94970.09;4874735;29;20541;-79
2020/12/05 11:52:43;;;;;;;7.43;4.50;;;;;;;25.63;34.32;94961.03;4888915;29;20162;-80
2020/12/05 11:55:09;;;;;;;6.03;4.10;;;;;;;25.46;34.43;94952.41;4873190;29;20102;-80
2020/12/05 11:57:35;;;;;;;6.72;4.20;;;;;;;25.57;34.48;94957.69;4875206;29;20056;-81
2020/12/05 12:00:00;;;;;;;6.38;4.05;;;;;;;25.63;34.28;94961.03;4890562;29;20501;-80
2020/12/05 12:02:26;;;;;;;6.93;4.68;;;;;;;25.53;33.98;94965.44;4906565;28;21291;-80
2020/12/05 12:04:51;;;;;;;6.10;4.07;;;;;;;25.44;34.33;94965.84;4965061;28;20405;-81
2020/12/05 12:07:17;;;;;;;5.18;3.70;;;;;;;25.47;34.56;94981.97;4971372;28;20488;-78
2020/12/05 12:09:42;;;;;;;6.22;3.90;;;;;;;25.43;34.59;94978.78;4960853;28;20019;-79
2020/12/05 12:12:08;;;;;;;5.95;3.80;;;;;;;25.40;34.40;94976.38;4971366;28;20031;-80
2020/12/05 12:14:33;;;;;;;5.85;4.00;;;;;;;25.34;34.40;94978.47;4978422;28;20451;-80
2020/12/05 12:16:58;;;;;;;6.65;3.72;;;;;;;25.23;34.46;94959.53;4974194;28;20047;-81
2020/12/05 12:19:24;;;;;;;6.72;4.22;;;;;;;25.27;34.32;94968.16;4973043;28;20027;-80
2020/12/05 12:21:49;;;;;;;5.65;3.80;;;;;;;25.31;34.35;94974.06;4972987;28;20527;-80
2020/12/05 12:24:15;;;;;;;9.65;3.97;;;;;;;25.30;34.51;94978.03;4974179;28;20041;-76
2020/12/05 12:26:40;;;;;;;6.22;3.97;;;;;;;25.10;34.81;94954.03;4951618;28;20088;-76
2020/12/05 12:29:06;;;;;;;5.78;3.72;;;;;;;25.19;34.71;94977.50;4974332;28;20034;-79
2020/12/05 12:31:31;;;;;;;6.22;3.95;;;;;;;25.13;35.05;94991.25;4973121;28;20029;-78
2020/12/05 12:33:57;;;;;;;6.78;4.47;;;;;;;25.23;34.46;94989.59;4964055;28;20464;-80
2020/12/05 12:36:23;;;;;;;6.53;4.30;;;;;;;25.23;34.90;94984.13;4956730;28;20101;-78
2020/12/05 12:38:51;;;;;;;6.28;3.85;;;;;;;25.11;34.75;94960.97;4968988;28;20031;-80
2020/12/05 12:41:17;;;;;;;6.53;4.20;;;;;;;25.34;34.42;94971.00;4950097;28;20073;-77
2020/12/05 12:43:43;;;;;;;5.38;3.63;;;;;;;25.33;34.57;94971.53;4941350;28;20547;-76
2020/12/05 12:46:09;;;;;;;5.55;4.22;;;;;;;25.32;34.50;94981.00;4965155;28;20034;-77
2020/12/05 12:51:00;;;;;;;6.93;4.32;;;;;;;25.32;34.50;94984.47;4962811;28;20027;-76
2020/12/05 12:53:25;;;;;;;6.95;4.20;;;;;;;25.37;34.13;94977.44;4960555;28;20046;-79
2020/12/05 12:55:51;;;;;;;6.32;4.22;;;;;;;25.31;34.65;94984.25;4954721;28;20538;-78
2020/12/05 12:58:33;;;;;;;6.47;4.25;;;;;;;25.30;34.22;94994.44;4957016;28;20031;-79
2020/12/05 13:00:58;;;;;;;8.45;4.53;;;;;;;25.23;34.26;95000.53;4980325;28;20054;-78
2020/12/05 13:03:24;;;;;;;6.50;4.13;;;;;;;25.22;34.69;94987.38;4952633;28;20041;-77
2020/12/05 13:05:50;;;;;;;5.70;4.18;;;;;;;25.24;34.66;94996.53;4957416;28;20042;-78
2020/12/05 13:08:15;;;;;;;8.75;4.07;;;;;;;25.23;34.35;94962.28;4977826;28;20031;-79
2020/12/05 13:10:41;;;;;;;5.45;3.67;;;;;;;25.28;34.22;94996.22;4962832;28;20499;-80
2020/12/05 13:13:06;;;;;;;6.72;4.03;;;;;;;25.22;34.55;94996.31;4968181;28;20042;-79
2020/12/05 13:15:31;;;;;;;7.20;4.40;;;;;;;25.21;34.46;95003.03;4948555;28;20038;-78
2020/12/05 13:17:57;;;;;;;6.68;3.97;;;;;;;25.18;34.80;95009.53;4959620;28;20097;-80
2020/12/05 13:20:22;;;;;;;8.68;5.20;;;;;;;25.14;34.33;95014.59;4962240;28;20027;-78
2020/12/05 13:22:48;;;;;;;8.25;4.38;;;;;;;24.94;34.72;94985.03;4978323;28;20396;-78
2020/12/05 13:25:13;;;;;;;8.20;4.32;;;;;;;24.96;34.53;94988.00;4978496;28;20424;-79
2020/12/05 13:27:39;;;;;;;10.68;5.93;;;;;;;24.97;34.64;94994.19;4968678;28;20030;-79
2020/12/05 13:30:04;;;;;;;8.68;4.45;;;;;;;24.97;34.38;95005.84;4968446;28;20017;-78
2020/12/05 13:32:30;;;;;;;9.35;4.60;;;;;;;24.98;34.58;95007.34;4963038;28;20495;-79
2020/12/05 13:34:55;;;;;;;8.32;4.50;;;;;;;24.97;34.67;95005.84;4967136;28;20035;-78
2020/12/05 13:37:21;;;;;;;7.18;4.43;;;;;;;24.92;34.45;95003.22;4974701;28;20070;-79
2020/12/05 13:39:46;;;;;;;8.85;4.75;;;;;;;24.84;34.53;95003.09;4977596;28;20046;-78
2020/12/05 13:42:12;;;;;;;7.03;4.35;;;;;;;24.90;34.66;95011.19;4980507;28;20423;-77
2020/12/05 13:44:37;;;;;;;8.00;4.40;;;;;;;24.84;34.31;94996.88;4974331;28;20014;-76
2020/12/05 13:47:03;;;;;;;7.78;4.68;;;;;;;24.87;34.27;95006.75;4980424;28;20053;-76
2020/12/05 13:49:31;;;;;;;8.88;4.63;;;;;;;24.76;35.02;95000.75;4945789;28;20041;-77
2020/12/05 13:52:04;;;;;;;7.57;4.80;;;;;;;24.83;34.42;95011.81;4969749;28;20034;-78
2020/12/05 13:54:30;;;;;;;8.00;4.40;;;;;;;24.65;34.82;95000.88;4976883;28;20093;-78
2020/12/05 13:56:55;;;;;;;6.95;4.38;;;;;;;24.74;35.09;95014.16;4952653;28;20034;-77
2020/12/05 13:59:21;;;;;;;7.80;4.18;;;;;;;24.71;34.41;95017.91;4986811;28;20042;-76
2020/12/05 14:01:46;;;;;;;8.55;5.07;;;;;;;24.67;34.87;95020.97;4993869;28;20038;-77
2020/12/05 14:04:12;;;;;;;9.35;4.45;;;;;;;24.61;34.91;95009.38;4999338;28;20053;-78
2020/12/05 14:06:37;;;;;;;6.43;4.50;;;;;;;24.61;34.77;95016.84;4998503;28;20030;-76
2020/12/05 14:09:03;;;;;;;8.65;4.50;;;;;;;24.56;34.67;95020.38;4989768;28;20038;-76
2020/12/05 14:11:28;;;;;;;6.65;4.60;;;;;;;24.47;35.01;95023.47;4959162;28;20023;-79
2020/12/05 14:13:54;;;;;;;9.00;5.32;;;;;;;24.59;35.09;95024.81;4975293;28;20790;-77
2020/12/05 14:16:19;;;;;;;13.07;4.43;;;;;;;24.47;35.09;95023.47;4977377;28;20042;-77
2020/12/05 14:18:44;;;;;;;10.30;4.53;;;;;;;24.56;35.25;95014.94;4980764;28;20042;-78
2020/12/05 14:21:10;;;;;;;8.23;4.60;;;;;;;24.44;35.40;95013.59;4976340;28;20033;-77
2020/12/05 14:23:36;;;;;;;11.45;4.80;;;;;;;24.51;35.65;95026.63;4977213;28;20039;-77
2020/12/05 14:26:01;;;;;;;9.35;4.50;;;;;;;24.51;35.57;95027.41;4972711;28;20481;-77
2020/12/05 14:28:27;;;;;;;8.38;4.90;;;;;;;24.48;35.42;95031.16;4960348;28;20037;-77
2020/12/05 14:30:52;;;;;;;7.93;4.30;;;;;;;24.54;35.65;95029.09;4968216;28;20026;-79
2020/12/05 14:33:18;;;;;;;8.75;4.22;;;;;;;24.51;35.30;95019.22;4977028;28;20037;-82
2020/12/05 14:35:49;;;;;;;8.23;4.57;;;;;;;24.52;35.23;95030.84;4954782;28;20026;-80
2020/12/05 14:38:15;;;;;;;9.95;4.75;;;;;;;24.55;34.99;95024.38;4966544;28;20153;-79
2020/12/05 14:40:40;;;;;;;11.13;4.90;;;;;;;24.41;35.40;95022.81;4974888;28;20043;-78
2020/12/05 14:45:37;;;;;;;8.63;4.07;;;;;;;24.44;35.23;95027.97;5032061;23;20048;-76
2020/12/05 14:48:03;;;;;;;6.68;4.45;;;;;;;24.50;35.15;95033.38;4890053;29;20039;-77
2020/12/05 14:50:29;;;;;;;8.98;4.57;;;;;;;24.34;35.66;95032.31;4935431;29;20023;-76
2020/12/05 14:52:54;;;;;;;9.25;4.57;;;;;;;24.46;35.17;95027.47;4917497;29;20572;-77
2020/12/05 14:55:20;;;;;;;9.68;4.88;;;;;;;24.64;35.19;95032.19;4933946;29;20032;-76
2020/12/05 14:57:45;;;;;;;8.40;4.55;;;;;;;24.63;35.17;95025.97;4933689;29;20071;-76
2020/12/05 15:00:10;;;;;;;7.25;4.43;;;;;;;24.70;34.67;95041.03;4936134;29;20087;-77
2020/12/05 15:02:36;;;;;;;8.38;4.30;;;;;;;24.67;34.86;95025.69;4932267;29;20046;-77
2020/12/05 15:05:02;;;;;;;7.35;4.63;;;;;;;24.76;35.11;95028.06;4936310;29;20027;-78
2020/12/05 15:07:27;;;;;;;7.70;4.50;;;;;;;24.76;35.02;95028.06;4918926;29;20038;-77
2020/12/05 15:09:53;;;;;;;8.85;5.30;;;;;;;24.75;34.79;95029.31;4936498;29;20032;-77
2020/12/05 15:12:18;;;;;;;7.43;4.40;;;;;;;24.82;34.79;95036.91;4938471;29;20725;-76
2020/12/05 15:14:44;;;;;;;9.80;5.57;;;;;;;24.80;34.51;95033.94;4919399;29;20059;-76
2020/12/05 15:17:09;;;;;;;7.22;4.57;;;;;;;24.81;34.63;95040.88;4937724;29;20070;-75
2020/12/05 15:19:35;;;;;;;13.85;5.15;;;;;;;24.85;34.91;95037.34;4906209;29;20086;-75
2020/12/05 15:22:02;;;;;;;9.13;4.82;;;;;;;24.85;34.63;95026.41;4935227;29;20480;-75
2020/12/05 15:24:27;;;;;;;8.05;4.40;;;;;;;24.90;34.55;95033.03;4936231;29;20468;-77
2020/12/05 15:26:54;;;;;;;7.97;4.72;;;;;;;24.95;34.65;95035.72;4915833;29;20039;-75
2020/12/05 15:29:19;;;;;;;9.68;4.38;;;;;;;24.89;34.71;95026.84;4932286;28;20090;-77
2020/12/05 15:31:45;;;;;;;8.13;4.68;;;;;;;24.99;34.46;95041.66;4914330;29;20019;-77
2020/12/05 15:34:11;;;;;;;7.10;4.70;;;;;;;25.00;34.57;95032.16;4900490;29;20099;-78
2020/12/05 15:36:36;;;;;;;8.40;5.18;;;;;;;24.91;34.76;95029.78;4929861;29;20044;-79
2020/12/05 15:39:02;;;;;;;9.57;4.50;;;;;;;24.96;34.87;95036.44;4916269;29;20032;-79
2020/12/05 15:41:28;;;;;;;9.35;4.50;;;;;;;24.96;34.77;95034.47;4914387;29;20515;-78
2020/12/05 15:43:53;;;;;;;12.43;4.97;;;;;;;24.92;34.72;95031.28;4934055;29;20035;-79
2020/12/05 15:46:19;;;;;;;7.55;4.88;;;;;;;24.95;34.78;95035.72;4922939;29;20027;-79
2020/12/05 15:48:45;;;;;;;8.95;4.63;;;;;;;24.98;34.50;95033.94;4944725;29;20119;-78
2020/12/05 15:51:10;;;;;;;9.27;5.47;;;;;;;25.03;34.87;95038.59;4938145;29;20035;-81
2020/12/05 15:53:36;;;;;;;11.27;5.45;;;;;;;25.01;34.65;95039.13;4919641;29;20031;-80
2020/12/05 15:56:01;;;;;;;10.63;4.88;;;;;;;25.01;34.75;95044.59;4911439;29;20019;-78
2020/12/05 15:58:28;;;;;;;8.07;5.10;;;;;;;25.06;34.50;95041.03;4932516;29;20028;-75
2020/12/05 16:00:53;;;;;;;7.18;4.50;;;;;;;25.07;34.97;95037.03;4934821;29;20031;-77
2020/12/05 16:03:19;;;;;;;10.07;5.07;;;;;;;25.04;34.75;95043.56;4911785;29;20081;-75
2020/12/05 16:05:45;;;;;;;8.27;4.32;;;;;;;25.02;34.93;95043.34;4931106;29;20031;-79
2020/12/05 16:08:11;;;;;;;10.13;5.00;;;;;;;24.99;35.00;95047.09;4917386;29;20060;-78
2020/12/05 16:10:36;;;;;;;9.90;4.78;;;;;;;24.98;35.09;95051.06;4901359;29;20039;-80
2020/12/05 16:13:02;;;;;;;10.70;5.38;;;;;;;25.06;35.28;95049.22;4940838;29;20027;-83
2020/12/05 16:15:27;;;;;;;7.72;4.80;;;;;;;25.07;34.91;95058.19;4942708;29;20027;-76
2020/12/05 16:17:53;;;;;;;7.18;4.72;;;;;;;25.09;34.70;95061.84;4936282;29;20045;-75
2020/12/05 16:20:18;;;;;;;8.10;4.72;;;;;;;25.00;34.68;95059.50;4917437;29;20067;-77
2020/12/05 16:22:44;;;;;;;8.20;4.75;;;;;;;25.08;34.81;95060.41;4900203;29;20039;-78
2020/12/05 16:25:09;;;;;;;7.20;4.50;;;;;;;25.13;34.81;95062.28;4933067;29;20043;-77